createdAt,value
2023-04-24T00:00:21.595Z,10.67
2023-04-24T00:02:51.918Z,10.45
2023-04-24T00:05:22.096Z,10.45
2023-04-24T00:07:56.119Z,10.64
2023-04-24T00:10:25.928Z,10.52
2023-04-24T00:12:56.044Z,10.51
2023-04-24T00:15:25.721Z,10.53
2023-04-24T00:17:55.608Z,10.74
2023-04-24T00:20:25.377Z,10.58
2023-04-24T00:22:55.568Z,10.41
2023-04-24T00:25:25.197Z,10.39
2023-04-24T00:27:55.305Z,10.43
2023-04-24T00:30:25.315Z,10.45
2023-04-24T00:32:55.634Z,10.58
2023-04-24T00:35:25.868Z,10.62
2023-04-24T00:37:56.231Z,10.59
2023-04-24T00:40:25.751Z,10.74
2023-04-24T00:42:56.675Z,10.72
2023-04-24T00:45:27.521Z,10.79
2023-04-24T00:47:58.129Z,10.79
2023-04-24T00:50:28.055Z,10.58
2023-04-24T00:52:59.180Z,10.65
2023-04-24T00:55:29.448Z,10.83
2023-04-24T00:58:00.381Z,10.54
2023-04-24T01:00:31.022Z,10.51
2023-04-24T01:03:03.623Z,10.72
2023-04-24T01:05:35.241Z,10.68
2023-04-24T01:08:05.612Z,10.71
2023-04-24T01:10:36.565Z,10.76
2023-04-24T01:13:06.751Z,10.67
2023-04-24T01:15:37.355Z,10.71
2023-04-24T01:18:07.678Z,10.52
2023-04-24T01:20:40.269Z,10.68
2023-04-24T01:23:10.632Z,10.51
2023-04-24T01:25:40.766Z,10.70
2023-04-24T01:28:11.240Z,10.84
2023-04-24T01:30:41.282Z,10.77
2023-04-24T01:33:11.651Z,10.69
2023-04-24T01:35:42.047Z,10.55
2023-04-24T01:38:11.981Z,10.66
2023-04-24T01:40:42.258Z,10.48
2023-04-24T01:43:13.048Z,10.45
2023-04-24T01:45:42.907Z,10.52
2023-04-24T01:48:14.588Z,10.68
2023-04-24T01:50:44.528Z,10.42
2023-04-24T01:53:14.889Z,10.69
2023-04-24T01:55:45.018Z,10.48
2023-04-24T01:58:16.277Z,10.65
2023-04-24T02:00:46.438Z,10.51
2023-04-24T02:03:17.359Z,10.69
2023-04-24T02:05:47.234Z,10.45
2023-04-24T02:08:17.352Z,10.57
2023-04-24T02:10:47.465Z,10.66
2023-04-24T02:13:17.592Z,10.71
2023-04-24T02:15:47.432Z,10.82
2023-04-24T02:18:17.790Z,10.54
2023-04-24T02:20:47.592Z,10.54
2023-04-24T02:23:17.734Z,10.67
2023-04-24T02:25:48.231Z,10.45
2023-04-24T02:28:20.148Z,10.34
2023-04-24T02:30:49.948Z,10.43
2023-04-24T02:33:20.146Z,10.27
2023-04-24T02:35:50.036Z,10.52
2023-04-24T02:38:20.271Z,10.41
2023-04-24T02:40:50.135Z,10.47
2023-04-24T02:43:20.255Z,10.56
2023-04-24T02:45:50.233Z,10.66
2023-04-24T02:48:21.760Z,10.38
2023-04-24T02:50:51.997Z,10.50
2023-04-24T02:53:22.182Z,10.66
2023-04-24T02:55:52.013Z,10.36
2023-04-24T02:58:22.193Z,10.34
2023-04-24T03:00:59.207Z,10.05
2023-04-24T03:03:29.236Z,10.38
2023-04-24T03:05:59.748Z,10.43
2023-04-24T03:08:29.573Z,10.10
2023-04-24T03:10:59.447Z,10.01
2023-04-24T03:13:29.265Z,10.13
2023-04-24T03:15:59.182Z,10.21
2023-04-24T03:18:29.624Z,10.39
2023-04-24T03:21:00.339Z,10.14
2023-04-24T03:23:30.501Z,10.11
2023-04-24T03:26:00.542Z,10.23
2023-04-24T03:28:30.491Z,10.12
2023-04-24T03:31:02.318Z,10.06
2023-04-24T03:33:33.844Z,10.27
2023-04-24T03:36:04.289Z,10.22
2023-04-24T03:38:41.473Z,10.22
2023-04-24T03:41:18.787Z,10.14
2023-04-24T03:43:50.540Z,10.26
2023-04-24T03:46:21.364Z,10.07
2023-04-24T03:48:52.924Z,10.05
2023-04-24T03:51:24.523Z,10.15
2023-04-24T03:53:56.367Z,10.00
2023-04-24T03:56:26.683Z,9.98
2023-04-24T03:58:56.501Z,9.84
2023-04-24T04:01:26.547Z,10.18
2023-04-24T04:04:01.147Z,10.19
2023-04-24T04:06:35.425Z,10.03
2023-04-24T04:09:05.571Z,10.00
2023-04-24T04:11:36.328Z,10.05
2023-04-24T04:14:06.362Z,10.12
2023-04-24T04:16:37.551Z,10.01
2023-04-24T04:19:08.520Z,10.07
2023-04-24T04:21:38.498Z,10.07
2023-04-24T04:24:12.786Z,10.06
2023-04-24T04:26:46.254Z,10.05
2023-04-24T04:29:18.737Z,9.89
2023-04-24T04:31:49.309Z,10.28
2023-04-24T04:34:19.393Z,10.27
2023-04-24T04:36:49.236Z,10.30
2023-04-24T04:39:32.759Z,10.28
2023-04-24T04:42:04.838Z,10.05
2023-04-24T04:44:36.920Z,10.13
2023-04-24T04:47:07.544Z,9.92
2023-04-24T04:49:39.906Z,9.96
2023-04-24T04:52:12.191Z,9.90
2023-04-24T04:54:42.292Z,9.87
2023-04-24T04:57:13.013Z,9.78
2023-04-24T04:59:43.350Z,9.76
2023-04-24T05:02:15.111Z,9.62
2023-04-24T05:04:46.362Z,9.57
2023-04-24T05:07:16.955Z,9.78
2023-04-24T05:09:48.513Z,9.72
2023-04-24T05:12:18.406Z,9.87
2023-04-24T05:14:50.885Z,10.20
2023-04-24T05:17:20.784Z,10.09
2023-04-24T05:19:50.443Z,10.11
2023-04-24T05:22:21.915Z,9.94
2023-04-24T05:24:54.158Z,10.11
2023-04-24T05:27:42.210Z,9.96
2023-04-24T05:30:14.634Z,9.89
2023-04-24T05:32:44.660Z,9.99
2023-04-24T05:35:14.257Z,10.17
2023-04-24T05:37:44.144Z,9.93
2023-04-24T05:40:14.472Z,10.22
2023-04-24T05:42:45.192Z,9.94
2023-04-24T05:45:16.649Z,10.16
2023-04-24T05:47:46.643Z,10.16
2023-04-24T05:50:17.448Z,10.16
2023-04-24T05:52:47.455Z,10.07
2023-04-24T05:55:19.456Z,10.30
2023-04-24T05:57:49.430Z,10.17
2023-04-24T06:00:20.778Z,9.81
2023-04-24T06:02:53.975Z,10.23
2023-04-24T06:05:24.557Z,10.07
2023-04-24T06:07:55.969Z,9.99
2023-04-24T06:10:27.483Z,10.14
2023-04-24T06:12:58.975Z,10.20
2023-04-24T06:15:31.925Z,10.05
2023-04-24T06:18:06.456Z,9.74
2023-04-24T06:20:36.369Z,9.74
2023-04-24T06:23:06.220Z,10.07
2023-04-24T06:25:36.426Z,9.71
2023-04-24T06:28:07.049Z,9.90
2023-04-24T06:30:38.474Z,10.14
2023-04-24T06:33:19.615Z,9.87
2023-04-24T06:35:39.992Z,10.19
2023-04-24T06:38:09.599Z,10.21
2023-04-24T06:40:40.102Z,10.02
2023-04-24T06:43:10.602Z,9.94
2023-04-24T06:45:41.263Z,10.21
2023-04-24T06:48:11.864Z,9.94
2023-04-24T06:50:41.729Z,9.83
2023-04-24T06:53:13.170Z,9.63
2023-04-24T06:55:44.208Z,9.55
2023-04-24T06:58:14.703Z,9.78
2023-04-24T07:00:44.484Z,9.54
2023-04-24T07:03:14.486Z,9.48
2023-04-24T07:05:44.417Z,9.57
2023-04-24T07:08:17.407Z,9.68
2023-04-24T07:10:47.202Z,9.73
2023-04-24T07:13:17.302Z,9.59
2023-04-24T07:15:47.194Z,9.61
2023-04-24T07:18:17.333Z,9.71
2023-04-24T07:20:47.517Z,9.67
2023-04-24T07:23:17.584Z,9.61
2023-04-24T07:25:47.891Z,9.60
2023-04-24T07:28:18.935Z,9.54
2023-04-24T07:30:48.794Z,9.62
2023-04-24T07:33:18.758Z,9.56
2023-04-24T07:35:48.624Z,9.51
2023-04-24T07:38:20.178Z,9.55
2023-04-24T07:40:50.533Z,9.26
2023-04-24T07:43:22.357Z,9.43
2023-04-24T07:45:53.046Z,9.33
2023-04-24T07:48:23.208Z,9.29
2023-04-24T07:50:53.016Z,9.30
2023-04-24T07:53:22.960Z,9.52
2023-04-24T07:55:52.796Z,9.52
2023-04-24T07:58:22.674Z,9.32
2023-04-24T08:00:53.197Z,9.29
2023-04-24T08:03:22.963Z,9.38
2023-04-24T08:05:53.319Z,9.31
2023-04-24T08:08:24.902Z,9.17
2023-04-24T08:10:55.825Z,9.56
2023-04-24T08:13:25.919Z,9.70
2023-04-24T08:15:56.205Z,9.61
2023-04-24T08:18:25.839Z,9.61
2023-04-24T08:20:55.799Z,9.49
2023-04-24T08:23:25.699Z,9.77
2023-04-24T08:25:55.936Z,9.62
2023-04-24T08:28:25.661Z,9.44
2023-04-24T08:33:28.122Z,9.67
2023-04-24T08:35:58.262Z,9.46
2023-04-24T08:38:27.863Z,9.56
2023-04-24T08:41:00.387Z,9.50
2023-04-24T08:43:30.617Z,9.71
2023-04-24T08:46:01.253Z,9.51
2023-04-24T08:48:32.404Z,9.59
2023-04-24T08:51:03.229Z,9.42
2023-04-24T08:53:34.799Z,9.46
2023-04-24T08:56:05.711Z,9.07
2023-04-24T08:58:36.093Z,9.17
2023-04-24T09:01:07.230Z,9.27
2023-04-24T09:03:37.853Z,9.42
2023-04-24T09:06:11.392Z,9.63
2023-04-24T09:08:42.966Z,9.42
2023-04-24T09:11:13.398Z,9.41
2023-04-24T09:13:45.048Z,9.27
2023-04-24T09:16:15.755Z,9.55
2023-04-24T09:18:45.633Z,9.47
2023-04-24T09:21:15.684Z,9.52
2023-04-24T09:23:45.950Z,9.74
2023-04-24T09:26:15.920Z,9.89
2023-04-24T09:28:47.074Z,10.35
2023-04-24T09:31:19.677Z,10.14
2023-04-24T09:34:02.311Z,10.03
2023-04-24T09:36:40.197Z,9.74
2023-04-24T09:39:16.370Z,10.00
2023-04-24T09:41:48.094Z,10.00
2023-04-24T09:44:19.398Z,9.71
2023-04-24T09:46:55.636Z,9.47
2023-04-24T09:49:29.423Z,9.75
2023-04-24T09:52:13.191Z,9.52
2023-04-24T09:54:43.117Z,9.91
2023-04-24T09:57:12.969Z,9.94
2023-04-24T09:59:47.821Z,10.10
2023-04-24T10:02:23.569Z,10.34
2023-04-24T10:05:01.454Z,10.56
2023-04-24T10:07:33.170Z,10.64
2023-04-24T10:10:03.307Z,11.21
2023-04-24T10:12:33.586Z,11.52
2023-04-24T10:15:04.157Z,11.60
2023-04-24T10:17:34.390Z,11.72
2023-04-24T10:20:08.132Z,11.48
2023-04-24T10:22:38.868Z,11.79
2023-04-24T10:25:09.261Z,12.35
2023-04-24T10:27:39.865Z,11.84
2023-04-24T10:30:11.062Z,11.06
2023-04-24T10:32:41.028Z,10.92
2023-04-24T10:35:11.922Z,10.79
2023-04-24T10:38:08.654Z,11.09
2023-04-24T10:40:38.901Z,11.01
2023-04-24T10:43:13.270Z,11.37
2023-04-24T10:45:43.142Z,10.89
2023-04-24T10:48:14.902Z,11.00
2023-04-24T10:50:48.533Z,10.85
2023-04-24T10:53:21.263Z,10.63
2023-04-24T10:56:02.599Z,10.27
2023-04-24T10:58:41.654Z,9.76
2023-04-24T11:01:13.013Z,9.87
2023-04-24T11:03:47.755Z,9.98
2023-04-24T11:06:17.740Z,10.31
2023-04-24T11:08:50.034Z,10.64
2023-04-24T11:11:22.226Z,10.63
2023-04-24T11:14:00.965Z,10.75
2023-04-24T11:16:39.952Z,11.21
2023-04-24T11:19:12.201Z,11.37
2023-04-24T11:21:44.499Z,11.43
2023-04-24T11:24:43.497Z,11.47
2023-04-24T11:27:20.919Z,11.22
2023-04-24T11:30:05.377Z,11.06
2023-04-24T11:32:38.457Z,10.48
2023-04-24T11:35:26.118Z,10.65
2023-04-24T11:40:28.223Z,10.53
2023-04-24T11:42:58.196Z,10.04
2023-04-24T11:45:31.034Z,10.36
2023-04-24T11:48:01.024Z,9.88
2023-04-24T11:50:31.249Z,10.10
2023-04-24T11:53:01.446Z,10.07
2023-04-24T11:55:31.762Z,10.57
2023-04-24T11:58:02.523Z,10.72
2023-04-24T12:00:37.657Z,10.92
2023-04-24T12:03:10.190Z,11.30
2023-04-24T12:05:41.460Z,11.26
2023-04-24T12:08:12.577Z,11.66
2023-04-24T12:10:42.363Z,11.42
2023-04-24T12:13:12.710Z,12.06
2023-04-24T12:15:43.281Z,11.58
2023-04-24T12:18:14.846Z,11.21
2023-04-24T12:20:44.683Z,11.24
2023-04-24T12:23:14.277Z,11.16
2023-04-24T12:25:44.113Z,11.43
2023-04-24T12:28:15.139Z,10.96
2023-04-24T12:30:46.647Z,10.64
2023-04-24T12:33:21.490Z,10.46
2023-04-24T12:35:56.474Z,10.38
2023-04-24T12:38:30.489Z,10.53
2023-04-24T12:41:12.014Z,10.42
2023-04-24T12:43:52.938Z,10.42
2023-04-24T12:46:23.029Z,10.87
2023-04-24T12:48:52.973Z,10.98
2023-04-24T12:51:22.882Z,11.03
2023-04-24T12:53:56.065Z,11.24
2023-04-24T12:56:25.368Z,11.46
2023-04-24T12:58:55.353Z,12.06
2023-04-24T13:01:25.312Z,11.87
2023-04-24T13:03:55.935Z,11.87
2023-04-24T13:06:27.280Z,11.32
2023-04-24T13:08:58.845Z,11.66
2023-04-24T13:11:29.006Z,11.44
2023-04-24T13:13:58.795Z,11.58
2023-04-24T13:16:28.759Z,11.58
2023-04-24T13:18:58.566Z,11.60
2023-04-24T13:21:28.439Z,11.59
2023-04-24T13:23:58.371Z,11.58
2023-04-24T13:26:28.149Z,11.58
2023-04-24T13:28:57.965Z,12.07
2023-04-24T13:31:27.844Z,11.87
2023-04-24T13:33:57.707Z,12.56
2023-04-24T13:36:27.781Z,13.06
2023-04-24T13:38:57.621Z,12.91
2023-04-24T13:41:27.572Z,11.98
2023-04-24T13:43:57.772Z,12.08
2023-04-24T13:46:28.051Z,12.12
2023-04-24T13:48:58.461Z,11.89
2023-04-24T13:51:28.724Z,11.82
2023-04-24T13:53:58.354Z,11.90
2023-04-24T13:56:28.498Z,11.77
2023-04-24T13:58:58.848Z,11.23
2023-04-24T14:01:28.764Z,11.09
2023-04-24T14:03:59.119Z,10.94
2023-04-24T14:06:29.109Z,10.97
2023-04-24T14:08:59.018Z,11.31
2023-04-24T14:11:29.384Z,11.29
2023-04-24T14:13:59.294Z,11.29
2023-04-24T14:16:30.196Z,11.23
2023-04-24T14:19:00.242Z,10.89
2023-04-24T14:21:30.076Z,10.82
2023-04-24T14:23:59.873Z,10.94
2023-04-24T14:26:29.806Z,10.94
2023-04-24T14:29:11.535Z,10.83
2023-04-24T14:31:31.825Z,11.12
2023-04-24T14:34:01.982Z,11.12
2023-04-24T14:36:32.556Z,11.26
2023-04-24T14:39:04.234Z,11.48
2023-04-24T14:41:36.827Z,11.70
2023-04-24T14:44:08.181Z,12.24
2023-04-24T14:46:38.057Z,12.58
2023-04-24T14:49:09.577Z,12.29
2023-04-24T14:51:40.105Z,11.87
2023-04-24T14:54:11.317Z,11.87
2023-04-24T14:56:41.958Z,11.34
2023-04-24T14:59:12.298Z,11.00
2023-04-24T15:01:42.118Z,10.83
2023-04-24T15:04:11.917Z,10.59
2023-04-24T15:06:41.784Z,10.43
2023-04-24T15:09:11.599Z,10.32
2023-04-24T15:11:41.551Z,10.32
2023-04-24T15:14:12.326Z,10.78
2023-04-24T15:16:42.782Z,10.56
2023-04-24T15:19:12.744Z,10.65
2023-04-24T15:21:43.576Z,10.55
2023-04-24T15:24:13.073Z,10.98
2023-04-24T15:26:42.923Z,11.22
2023-04-24T15:29:12.798Z,11.37
2023-04-24T15:31:42.889Z,11.25
2023-04-24T15:34:12.745Z,11.61
2023-04-24T15:36:42.865Z,11.47
2023-04-24T15:39:12.857Z,11.50
2023-04-24T15:41:42.708Z,11.67
2023-04-24T15:44:12.249Z,11.42
2023-04-24T15:46:42.165Z,11.63
2023-04-24T15:49:12.169Z,11.35
2023-04-24T15:51:42.469Z,11.26
2023-04-24T15:54:12.023Z,10.97
2023-04-24T15:56:41.843Z,10.66
2023-04-24T15:59:11.841Z,10.84
2023-04-24T16:01:41.911Z,11.25
2023-04-24T16:04:12.221Z,11.17
2023-04-24T16:06:42.544Z,11.32
2023-04-24T16:09:13.481Z,11.69
2023-04-24T16:11:44.479Z,11.69
2023-04-24T16:14:14.318Z,11.89
2023-04-24T16:16:44.482Z,11.98
2023-04-24T16:19:14.681Z,12.54
2023-04-24T16:21:44.536Z,12.46
2023-04-24T16:24:14.495Z,12.44
2023-04-24T16:26:44.859Z,12.68
2023-04-24T16:29:15.496Z,12.54
2023-04-24T16:31:45.666Z,12.25
2023-04-24T16:34:15.664Z,12.05
2023-04-24T16:36:45.739Z,12.44
2023-04-24T16:39:15.355Z,12.40
2023-04-24T16:41:45.343Z,12.05
2023-04-24T16:44:14.952Z,12.17
2023-04-24T16:46:44.956Z,11.91
2023-04-24T16:49:15.148Z,11.91
2023-04-24T16:51:45.453Z,11.97
2023-04-24T16:54:15.036Z,11.94
2023-04-24T16:56:45.030Z,12.16
2023-04-24T16:59:15.012Z,11.91
2023-04-24T17:01:45.015Z,11.53
2023-04-24T17:04:15.157Z,11.60
2023-04-24T17:06:45.093Z,11.74
2023-04-24T17:09:15.761Z,11.92
2023-04-24T17:11:45.668Z,12.01
2023-04-24T17:14:15.255Z,12.27
2023-04-24T17:16:46.078Z,12.15
2023-04-24T17:19:16.178Z,11.92
2023-04-24T17:21:46.362Z,11.57
2023-04-24T17:24:16.104Z,11.83
2023-04-24T17:26:46.179Z,11.89
2023-04-24T17:29:16.124Z,12.16
2023-04-24T17:31:46.397Z,12.38
2023-04-24T17:34:16.128Z,12.45
2023-04-24T17:36:46.068Z,12.86
2023-04-24T17:39:16.642Z,12.25
2023-04-24T17:41:46.555Z,12.05
2023-04-24T17:44:16.385Z,11.42
2023-04-24T17:46:46.676Z,10.98
2023-04-24T17:49:16.276Z,10.74
2023-04-24T17:51:46.218Z,10.56
2023-04-24T17:56:42.364Z,10.39
2023-04-24T17:59:12.295Z,10.11
2023-04-24T18:01:42.274Z,10.46
2023-04-24T18:04:12.172Z,10.29
2023-04-24T18:06:42.262Z,10.33
2023-04-24T18:09:12.870Z,10.56
2023-04-24T18:11:42.978Z,10.20
2023-04-24T18:14:12.858Z,10.03
2023-04-24T18:16:42.678Z,9.86
2023-04-24T18:19:12.820Z,9.86
2023-04-24T18:21:42.421Z,10.05
2023-04-24T18:24:12.345Z,10.08
2023-04-24T18:26:42.310Z,9.83
2023-04-24T18:29:12.175Z,10.00
2023-04-24T18:31:42.116Z,10.22
2023-04-24T18:34:11.951Z,9.92
2023-04-24T18:36:41.740Z,9.65
2023-04-24T18:39:11.551Z,9.70
2023-04-24T18:41:41.450Z,9.38
2023-04-24T18:44:11.956Z,9.38
2023-04-24T18:46:41.823Z,9.38
2023-04-24T18:49:11.746Z,9.39
2023-04-24T18:51:53.240Z,9.52
2023-04-24T18:54:13.147Z,9.62
2023-04-24T18:56:42.994Z,9.43
2023-04-24T18:59:12.792Z,8.99
2023-04-24T19:01:42.765Z,9.19
2023-04-24T19:04:13.709Z,9.03
2023-04-24T19:06:43.599Z,8.95
2023-04-24T19:09:14.484Z,8.79
2023-04-24T19:11:44.730Z,8.53
2023-04-24T19:14:16.101Z,8.53
2023-04-24T19:16:46.201Z,8.63
2023-04-24T19:19:16.113Z,8.96
2023-04-24T19:21:47.340Z,8.72
2023-04-24T19:24:18.947Z,8.72
2023-04-24T19:26:49.108Z,8.52
2023-04-24T19:29:18.937Z,8.52
2023-04-24T19:31:48.821Z,8.70
2023-04-24T19:34:18.650Z,8.36
2023-04-24T19:36:48.184Z,8.40
2023-04-24T19:39:17.969Z,8.30
2023-04-24T19:41:47.842Z,8.43
2023-04-24T19:44:17.656Z,8.45
2023-04-24T19:46:48.240Z,8.37
2023-04-24T19:49:18.320Z,8.63
2023-04-24T19:51:48.204Z,8.53
2023-04-24T19:54:19.809Z,8.57
2023-04-24T19:56:49.680Z,8.33
2023-04-24T19:59:19.488Z,8.13
2023-04-24T20:01:50.810Z,8.41
2023-04-24T20:04:22.740Z,8.21
2023-04-24T20:06:52.730Z,8.23
2023-04-24T20:09:22.842Z,8.23
2023-04-24T20:11:53.583Z,8.15
2023-04-24T20:14:23.271Z,8.21
2023-04-24T20:16:54.327Z,8.21
2023-04-24T20:19:24.128Z,8.22
2023-04-24T20:21:54.689Z,8.28
2023-04-24T20:24:24.222Z,7.85
2023-04-24T20:26:53.997Z,7.83
2023-04-24T20:29:23.860Z,8.14
2023-04-24T20:31:54.149Z,8.14
2023-04-24T20:34:24.553Z,7.87
2023-04-24T20:36:56.013Z,7.91
2023-04-24T20:39:26.626Z,7.87
2023-04-24T20:41:58.235Z,7.79
2023-04-24T20:44:27.936Z,8.05
2023-04-24T20:46:57.793Z,7.69
2023-04-24T20:49:27.378Z,7.68
2023-04-24T20:51:59.097Z,7.72
2023-04-24T20:54:28.863Z,7.58
2023-04-24T20:56:58.647Z,7.80
2023-04-24T20:59:29.022Z,7.80
2023-04-24T21:01:59.157Z,7.81
2023-04-24T21:04:29.077Z,7.58
2023-04-24T21:06:58.926Z,7.86
2023-04-24T21:09:28.796Z,7.60
2023-04-24T21:11:59.075Z,7.63
2023-04-24T21:14:28.907Z,7.59
2023-04-24T21:16:59.887Z,7.68
2023-04-24T21:19:29.891Z,7.46
2023-04-24T21:22:00.615Z,7.64
2023-04-24T21:24:30.800Z,7.38
2023-04-24T21:27:01.191Z,7.65
2023-04-24T21:29:31.088Z,7.59
2023-04-24T21:32:01.237Z,7.59
2023-04-24T21:34:30.998Z,7.55
2023-04-24T21:37:00.803Z,7.48
2023-04-24T21:39:30.633Z,7.45
2023-04-24T21:42:00.501Z,7.39
2023-04-24T21:44:30.633Z,7.42
2023-04-24T21:47:00.871Z,7.41
2023-04-24T21:49:30.689Z,7.48
2023-04-24T21:52:00.544Z,7.63
2023-04-24T21:54:30.329Z,7.63
2023-04-24T21:57:02.196Z,7.58
2023-04-24T21:59:32.150Z,7.45
2023-04-24T22:02:01.697Z,7.44
2023-04-24T22:04:31.676Z,7.42
2023-04-24T22:07:01.754Z,7.42
2023-04-24T22:09:31.853Z,7.43
2023-04-24T22:12:01.691Z,7.37
2023-04-24T22:14:31.292Z,7.34
2023-04-24T22:17:01.118Z,7.26
2023-04-24T22:19:30.925Z,7.21
2023-04-24T22:22:00.815Z,7.23
2023-04-24T22:24:30.682Z,7.28
2023-04-24T22:27:00.500Z,7.33
2023-04-24T22:29:31.503Z,7.34
2023-04-24T22:32:01.529Z,7.40
2023-04-24T22:34:31.638Z,7.46
2023-04-24T22:37:01.845Z,7.34
2023-04-24T22:39:31.630Z,7.39
2023-04-24T22:42:01.931Z,7.33
2023-04-24T22:44:31.830Z,7.22
2023-04-24T22:47:03.303Z,7.36
2023-04-24T22:49:34.830Z,7.52
2023-04-24T22:52:06.410Z,7.42
2023-04-24T22:54:36.258Z,7.29
2023-04-24T22:57:06.250Z,7.36
2023-04-24T22:59:36.186Z,7.33
2023-04-24T23:02:07.972Z,7.34
2023-04-24T23:04:37.819Z,7.34
2023-04-24T23:07:07.613Z,7.22
2023-04-24T23:09:37.200Z,7.34
2023-04-24T23:12:09.563Z,7.47
2023-04-24T23:14:39.652Z,7.15
2023-04-24T23:17:09.814Z,7.16
2023-04-24T23:19:39.678Z,7.27
2023-04-24T23:22:11.368Z,7.38
2023-04-24T23:24:41.326Z,7.38
2023-04-24T23:27:11.360Z,7.15
2023-04-24T23:29:41.191Z,6.94
2023-04-24T23:32:11.557Z,7.13
2023-04-24T23:34:41.457Z,7.08
2023-04-24T23:37:12.308Z,7.11
2023-04-24T23:39:42.087Z,7.13
2023-04-24T23:42:12.927Z,7.12
2023-04-24T23:44:42.840Z,7.12
2023-04-24T23:47:12.729Z,7.23
2023-04-24T23:49:42.885Z,6.99
2023-04-24T23:52:12.750Z,7.00
2023-04-24T23:54:42.903Z,6.76
2023-04-24T23:57:12.722Z,6.76
2023-04-24T23:59:42.532Z,6.73
